sensor_id;sensor_type;location;lat;lon;timestamp;pressure;altitude;pressure_sealevel;temperature;humidity
55604;BME280;41468;48.838;9.330;2023-04-07T00:01:44;98356.75;;;8.24;84.59
55604;BME280;41468;48.838;9.330;2023-04-07T00:04:10;98354.16;;;8.28;85.82
55604;BME280;41468;48.838;9.330;2023-04-07T00:06:37;98360.13;;;8.33;86.11
55604;BME280;41468;48.838;9.330;2023-04-07T00:09:06;98353.72;;;8.26;86.02
55604;BME280;41468;48.838;9.330;2023-04-07T00:11:32;98350.78;;;8.18;86.98
55604;BME280;41468;48.838;9.330;2023-04-07T00:13:59;98357.41;;;8.33;85.75
55604;BME280;41468;48.838;9.330;2023-04-07T00:16:26;98345.28;;;8.15;85.93
55604;BME280;41468;48.838;9.330;2023-04-07T00:18:53;98343.59;;;8.26;85.09
55604;BME280;41468;48.838;9.330;2023-04-07T00:21:19;98339.47;;;8.32;84.77
55604;BME280;41468;48.838;9.330;2023-04-07T00:23:46;98343.69;;;8.14;86.15
55604;BME280;41468;48.838;9.330;2023-04-07T00:26:13;98340.97;;;8.14;86.02
55604;BME280;41468;48.838;9.330;2023-04-07T00:28:40;98337.19;;;8.03;85.87
55604;BME280;41468;48.838;9.330;2023-04-07T00:31:07;98334.47;;;8.18;85.31
55604;BME280;41468;48.838;9.330;2023-04-07T00:33:34;98328.00;;;8.07;86.40
55604;BME280;41468;48.838;9.330;2023-04-07T00:36:00;98322.81;;;8.02;86.58
55604;BME280;41468;48.838;9.330;2023-04-07T00:38:27;98321.25;;;8.17;85.08
55604;BME280;41468;48.838;9.330;2023-04-07T00:40:57;98319.63;;;7.84;85.88
55604;BME280;41468;48.838;9.330;2023-04-07T00:43:25;98316.13;;;7.84;87.06
55604;BME280;41468;48.838;9.330;2023-04-07T00:45:52;98312.56;;;7.95;85.80
55604;BME280;41468;48.838;9.330;2023-04-07T00:48:20;98309.84;;;7.95;85.33
55604;BME280;41468;48.838;9.330;2023-04-07T00:50:47;98311.31;;;7.77;86.89
55604;BME280;41468;48.838;9.330;2023-04-07T00:53:14;98303.22;;;7.81;85.92
55604;BME280;41468;48.838;9.330;2023-04-07T00:55:41;98299.03;;;7.83;86.63
55604;BME280;41468;48.838;9.330;2023-04-07T00:58:08;98296.75;;;7.85;86.88
55604;BME280;41468;48.838;9.330;2023-04-07T01:00:48;98302.88;;;7.82;87.23
55604;BME280;41468;48.838;9.330;2023-04-07T01:03:19;98294.53;;;7.75;87.11
55604;BME280;41468;48.838;9.330;2023-04-07T01:05:54;98293.31;;;7.72;88.14
55604;BME280;41468;48.838;9.330;2023-04-07T01:09:17;98283.13;;;7.69;88.64
55604;BME280;41468;48.838;9.330;2023-04-07T01:14:05;98287.72;;;7.81;88.72
55604;BME280;41468;48.838;9.330;2023-04-07T01:16:41;98281.84;;;7.79;88.64
55604;BME280;41468;48.838;9.330;2023-04-07T01:19:34;98270.09;;;7.75;88.77
55604;BME280;41468;48.838;9.330;2023-04-07T01:22:23;98281.22;;;7.70;90.24
55604;BME280;41468;48.838;9.330;2023-04-07T01:25:12;98266.06;;;7.69;89.73
55604;BME280;41468;48.838;9.330;2023-04-07T01:27:57;98266.91;;;7.73;89.03
55604;BME280;41468;48.838;9.330;2023-04-07T01:30:31;98259.81;;;7.84;89.22
55604;BME280;41468;48.838;9.330;2023-04-07T01:32:59;98263.88;;;7.74;89.71
55604;BME280;41468;48.838;9.330;2023-04-07T01:35:29;98257.91;;;7.69;90.32
55604;BME280;41468;48.838;9.330;2023-04-07T01:37:58;98259.13;;;7.27;92.62
55604;BME280;41468;48.838;9.330;2023-04-07T01:40:26;98257.09;;;7.52;92.99
55604;BME280;41468;48.838;9.330;2023-04-07T01:42:55;98257.78;;;7.65;90.77
55604;BME280;41468;48.838;9.330;2023-04-07T01:45:22;98259.56;;;7.58;90.79
55604;BME280;41468;48.838;9.330;2023-04-07T01:47:50;98255.34;;;7.76;89.57
55604;BME280;41468;48.838;9.330;2023-04-07T01:50:20;98245.59;;;7.59;90.13
55604;BME280;41468;48.838;9.330;2023-04-07T01:52:51;98247.72;;;7.66;89.36
55604;BME280;41468;48.838;9.330;2023-04-07T01:55:20;98240.19;;;7.75;89.88
55604;BME280;41468;48.838;9.330;2023-04-07T01:57:47;98234.56;;;7.68;89.52
55604;BME280;41468;48.838;9.330;2023-04-07T02:00:13;98222.38;;;7.62;90.20
55604;BME280;41468;48.838;9.330;2023-04-07T02:02:43;98234.75;;;7.59;90.30
55604;BME280;41468;48.838;9.330;2023-04-07T02:05:13;98234.91;;;7.50;91.43
55604;BME280;41468;48.838;9.330;2023-04-07T02:08:03;98232.91;;;7.47;91.35
55604;BME280;41468;48.838;9.330;2023-04-07T02:10:36;98237.53;;;7.47;90.21
55604;BME280;41468;48.838;9.330;2023-04-07T02:13:06;98238.22;;;7.44;91.14
55604;BME280;41468;48.838;9.330;2023-04-07T02:15:35;98234.09;;;7.34;92.47
55604;BME280;41468;48.838;9.330;2023-04-07T02:18:03;98233.03;;;7.39;92.56
55604;BME280;41468;48.838;9.330;2023-04-07T02:20:33;98231.22;;;7.43;92.46
55604;BME280;41468;48.838;9.330;2023-04-07T02:23:00;98232.97;;;7.51;91.82
55604;BME280;41468;48.838;9.330;2023-04-07T02:25:29;98240.09;;;7.56;91.47
55604;BME280;41468;48.838;9.330;2023-04-07T02:27:57;98227.81;;;7.62;91.49
55604;BME280;41468;48.838;9.330;2023-04-07T02:30:25;98229.03;;;7.64;90.32
55604;BME280;41468;48.838;9.330;2023-04-07T02:32:51;98223.81;;;7.71;90.95
55604;BME280;41468;48.838;9.330;2023-04-07T02:35:18;98214.69;;;7.64;91.17
55604;BME280;41468;48.838;9.330;2023-04-07T02:37:45;98211.84;;;7.76;90.01
55604;BME280;41468;48.838;9.330;2023-04-07T02:40:13;98209.94;;;7.77;89.97
55604;BME280;41468;48.838;9.330;2023-04-07T02:42:40;98204.78;;;7.71;89.55
55604;BME280;41468;48.838;9.330;2023-04-07T02:45:08;98205.28;;;7.61;90.44
55604;BME280;41468;48.838;9.330;2023-04-07T02:47:35;98200.19;;;7.60;90.71
55604;BME280;41468;48.838;9.330;2023-04-07T02:50:03;98206.78;;;7.59;90.49
55604;BME280;41468;48.838;9.330;2023-04-07T02:52:30;98195.13;;;7.58;90.82
55604;BME280;41468;48.838;9.330;2023-04-07T02:54:56;98201.16;;;7.51;91.22
55604;BME280;41468;48.838;9.330;2023-04-07T02:57:23;98201.78;;;7.61;91.22
55604;BME280;41468;48.838;9.330;2023-04-07T02:59:50;98197.47;;;7.60;91.21
55604;BME280;41468;48.838;9.330;2023-04-07T03:02:16;98196.25;;;7.41;91.37
55604;BME280;41468;48.838;9.330;2023-04-07T03:04:43;98193.88;;;7.40;92.09
55604;BME280;41468;48.838;9.330;2023-04-07T03:07:10;98200.09;;;7.40;92.11
55604;BME280;41468;48.838;9.330;2023-04-07T03:09:37;98193.72;;;7.48;91.64
55604;BME280;41468;48.838;9.330;2023-04-07T03:12:03;98193.00;;;7.51;92.27
55604;BME280;41468;48.838;9.330;2023-04-07T03:14:30;98191.44;;;7.50;92.30
55604;BME280;41468;48.838;9.330;2023-04-07T03:16:57;98191.06;;;7.52;92.42
55604;BME280;41468;48.838;9.330;2023-04-07T03:19:23;98182.84;;;7.48;92.83
55604;BME280;41468;48.838;9.330;2023-04-07T03:21:50;98176.81;;;7.39;93.44
55604;BME280;41468;48.838;9.330;2023-04-07T03:24:17;98172.16;;;7.56;93.25
55604;BME280;41468;48.838;9.330;2023-04-07T03:26:44;98177.94;;;7.54;92.58
55604;BME280;41468;48.838;9.330;2023-04-07T03:29:11;98173.84;;;7.44;93.65
55604;BME280;41468;48.838;9.330;2023-04-07T03:31:37;98176.63;;;7.32;93.76
55604;BME280;41468;48.838;9.330;2023-04-07T03:34:09;98172.94;;;7.40;93.76
55604;BME280;41468;48.838;9.330;2023-04-07T03:36:35;98166.66;;;7.36;93.92
55604;BME280;41468;48.838;9.330;2023-04-07T03:39:02;98169.50;;;7.43;93.71
55604;BME280;41468;48.838;9.330;2023-04-07T03:41:29;98167.31;;;7.33;94.01
55604;BME280;41468;48.838;9.330;2023-04-07T03:43:57;98164.09;;;7.43;93.77
55604;BME280;41468;48.838;9.330;2023-04-07T03:46:23;98164.97;;;7.47;93.55
55604;BME280;41468;48.838;9.330;2023-04-07T03:48:52;98164.00;;;7.40;93.82
55604;BME280;41468;48.838;9.330;2023-04-07T03:51:19;98165.41;;;7.49;93.52
55604;BME280;41468;48.838;9.330;2023-04-07T03:53:46;98161.38;;;7.43;93.79
55604;BME280;41468;48.838;9.330;2023-04-07T03:56:12;98165.41;;;7.49;93.09
55604;BME280;41468;48.838;9.330;2023-04-07T03:58:39;98163.50;;;7.50;92.87
55604;BME280;41468;48.838;9.330;2023-04-07T04:01:08;98155.50;;;7.41;93.47
55604;BME280;41468;48.838;9.330;2023-04-07T04:03:34;98153.13;;;7.40;94.47
55604;BME280;41468;48.838;9.330;2023-04-07T04:06:01;98158.41;;;7.48;92.51
55604;BME280;41468;48.838;9.330;2023-04-07T04:08:29;98156.91;;;7.51;92.88
55604;BME280;41468;48.838;9.330;2023-04-07T04:10:55;98164.72;;;7.52;92.70
55604;BME280;41468;48.838;9.330;2023-04-07T04:13:22;98159.38;;;7.56;92.34
55604;BME280;41468;48.838;9.330;2023-04-07T04:15:49;98157.16;;;7.62;91.68
55604;BME280;41468;48.838;9.330;2023-04-07T04:18:17;98154.63;;;7.53;91.80
55604;BME280;41468;48.838;9.330;2023-04-07T04:20:43;98153.16;;;7.56;91.96
55604;BME280;41468;48.838;9.330;2023-04-07T04:23:10;98155.59;;;7.61;90.10
55604;BME280;41468;48.838;9.330;2023-04-07T04:25:37;98146.75;;;7.48;90.77
55604;BME280;41468;48.838;9.330;2023-04-07T04:28:05;98152.97;;;7.48;90.81
55604;BME280;41468;48.838;9.330;2023-04-07T04:30:32;98151.41;;;7.47;91.08
55604;BME280;41468;48.838;9.330;2023-04-07T04:32:58;98149.00;;;7.62;90.23
55604;BME280;41468;48.838;9.330;2023-04-07T04:35:25;98144.09;;;7.51;89.54
55604;BME280;41468;48.838;9.330;2023-04-07T04:37:57;98144.03;;;7.48;90.57
55604;BME280;41468;48.838;9.330;2023-04-07T04:40:24;98148.94;;;7.58;90.58
55604;BME280;41468;48.838;9.330;2023-04-07T04:42:50;98151.66;;;7.58;89.87
55604;BME280;41468;48.838;9.330;2023-04-07T04:45:17;98152.09;;;7.44;90.12
55604;BME280;41468;48.838;9.330;2023-04-07T04:47:44;98147.78;;;7.43;90.90
55604;BME280;41468;48.838;9.330;2023-04-07T04:50:11;98139.63;;;7.43;91.12
55604;BME280;41468;48.838;9.330;2023-04-07T04:52:38;98148.06;;;7.54;90.53
55604;BME280;41468;48.838;9.330;2023-04-07T04:55:05;98148.75;;;7.51;90.46
55604;BME280;41468;48.838;9.330;2023-04-07T04:57:32;98151.66;;;7.58;90.24
55604;BME280;41468;48.838;9.330;2023-04-07T05:00:12;98151.22;;;7.40;90.89
55604;BME280;41468;48.838;9.330;2023-04-07T05:02:39;98151.66;;;7.42;91.70
55604;BME280;41468;48.838;9.330;2023-04-07T05:05:06;98148.94;;;7.42;92.06
55604;BME280;41468;48.838;9.330;2023-04-07T05:07:33;98150.16;;;7.45;92.15
55604;BME280;41468;48.838;9.330;2023-04-07T05:10:00;98153.16;;;7.56;92.18
55604;BME280;41468;48.838;9.330;2023-04-07T05:12:26;98144.28;;;7.59;91.48
55604;BME280;41468;48.838;9.330;2023-04-07T05:14:53;98154.00;;;7.60;90.71
55604;BME280;41468;48.838;9.330;2023-04-07T05:17:20;98145.25;;;7.50;91.33
55604;BME280;41468;48.838;9.330;2023-04-07T05:19:46;98146.09;;;7.39;92.08
55604;BME280;41468;48.838;9.330;2023-04-07T05:22:23;98152.63;;;7.50;92.18
55604;BME280;41468;48.838;9.330;2023-04-07T05:24:50;98145.34;;;7.54;92.17
55604;BME280;41468;48.838;9.330;2023-04-07T05:27:17;98149.47;;;7.48;92.57
55604;BME280;41468;48.838;9.330;2023-04-07T05:29:43;98147.91;;;7.47;92.11
55604;BME280;41468;48.838;9.330;2023-04-07T05:32:10;98149.91;;;7.50;92.79
55604;BME280;41468;48.838;9.330;2023-04-07T05:34:37;98138.94;;;7.46;92.71
55604;BME280;41468;48.838;9.330;2023-04-07T05:37:03;98148.94;;;7.58;93.07
55604;BME280;41468;48.838;9.330;2023-04-07T05:39:30;98154.72;;;7.57;91.87
55604;BME280;41468;48.838;9.330;2023-04-07T05:41:57;98148.94;;;7.42;93.08
55604;BME280;41468;48.838;9.330;2023-04-07T05:44:24;98146.38;;;7.49;93.83
55604;BME280;41468;48.838;9.330;2023-04-07T05:46:50;98150.88;;;7.42;94.40
55604;BME280;41468;48.838;9.330;2023-04-07T05:49:17;98152.69;;;7.38;95.36
55604;BME280;41468;48.838;9.330;2023-04-07T05:51:46;98149.53;;;7.51;94.31
55604;BME280;41468;48.838;9.330;2023-04-07T05:54:14;98155.75;;;7.52;93.98
55604;BME280;41468;48.838;9.330;2023-04-07T05:56:41;98151.41;;;7.47;93.91
55604;BME280;41468;48.838;9.330;2023-04-07T05:59:07;98151.66;;;7.58;93.77
55604;BME280;41468;48.838;9.330;2023-04-07T06:01:34;98154.19;;;7.67;92.09
55604;BME280;41468;48.838;9.330;2023-04-07T06:04:01;98152.44;;;7.59;92.43
55604;BME280;41468;48.838;9.330;2023-04-07T06:06:28;98160.06;;;7.69;91.92
55604;BME280;41468;48.838;9.330;2023-04-07T06:08:55;98160.31;;;7.64;92.44
55604;BME280;41468;48.838;9.330;2023-04-07T06:11:22;98159.16;;;7.81;92.08
55604;BME280;41468;48.838;9.330;2023-04-07T06:13:49;98164.72;;;7.68;92.30
55604;BME280;41468;48.838;9.330;2023-04-07T06:16:16;98166.22;;;7.66;92.76
55604;BME280;41468;48.838;9.330;2023-04-07T06:18:45;98163.75;;;7.77;92.64
55604;BME280;41468;48.838;9.330;2023-04-07T06:21:11;98167.84;;;7.70;92.50
55604;BME280;41468;48.838;9.330;2023-04-07T06:23:38;98164.16;;;7.63;92.68
55604;BME280;41468;48.838;9.330;2023-04-07T06:26:05;98159.81;;;7.74;92.38
55604;BME280;41468;48.838;9.330;2023-04-07T06:28:31;98163.38;;;7.78;92.62
55604;BME280;41468;48.838;9.330;2023-04-07T06:31:03;98158.91;;;7.70;92.08
55604;BME280;41468;48.838;9.330;2023-04-07T06:33:30;98156.13;;;7.50;93.67
55604;BME280;41468;48.838;9.330;2023-04-07T06:35:57;98161.44;;;7.63;93.49
55604;BME280;41468;48.838;9.330;2023-04-07T06:38:24;98162.00;;;7.68;93.46
55604;BME280;41468;48.838;9.330;2023-04-07T06:40:50;98165.84;;;7.67;92.98
55604;BME280;41468;48.838;9.330;2023-04-07T06:43:17;98162.78;;;7.85;92.09
55604;BME280;41468;48.838;9.330;2023-04-07T06:45:44;98166.03;;;7.59;93.21
55604;BME280;41468;48.838;9.330;2023-04-07T06:48:15;98158.38;;;7.80;91.23
55604;BME280;41468;48.838;9.330;2023-04-07T06:50:45;98157.50;;;7.76;91.24
55604;BME280;41468;48.838;9.330;2023-04-07T06:53:13;98151.72;;;7.78;91.81
55604;BME280;41468;48.838;9.330;2023-04-07T06:55:40;98156.81;;;7.79;91.62
55604;BME280;41468;48.838;9.330;2023-04-07T06:58:07;98152.00;;;8.08;89.71
55604;BME280;41468;48.838;9.330;2023-04-07T07:00:34;98158.16;;;8.05;89.24
55604;BME280;41468;48.838;9.330;2023-04-07T07:03:01;98151.75;;;8.13;90.04
55604;BME280;41468;48.838;9.330;2023-04-07T07:05:28;98152.63;;;8.17;89.60
55604;BME280;41468;48.838;9.330;2023-04-07T07:07:55;98156.56;;;8.19;89.34
55604;BME280;41468;48.838;9.330;2023-04-07T07:10:22;98159.06;;;8.28;88.74
55604;BME280;41468;48.838;9.330;2023-04-07T07:12:50;98153.34;;;8.33;86.34
55604;BME280;41468;48.838;9.330;2023-04-07T07:15:17;98152.84;;;8.44;85.70
55604;BME280;41468;48.838;9.330;2023-04-07T07:17:44;98163.16;;;8.38;85.92
55604;BME280;41468;48.838;9.330;2023-04-07T07:20:11;98158.97;;;8.40;84.45
55604;BME280;41468;48.838;9.330;2023-04-07T07:22:38;98164.41;;;8.40;84.18
55604;BME280;41468;48.838;9.330;2023-04-07T07:25:04;98151.75;;;8.48;83.50
55604;BME280;41468;48.838;9.330;2023-04-07T07:27:31;98153.69;;;8.48;83.96
55604;BME280;41468;48.838;9.330;2023-04-07T07:29:58;98159.34;;;8.58;85.16
55604;BME280;41468;48.838;9.330;2023-04-07T07:32:25;98152.94;;;8.70;84.50
55604;BME280;41468;48.838;9.330;2023-04-07T07:34:52;98159.09;;;9.06;83.19
55604;BME280;41468;48.838;9.330;2023-04-07T07:37:18;98153.97;;;9.47;81.08
55604;BME280;41468;48.838;9.330;2023-04-07T07:39:45;98144.78;;;9.55;79.83
55604;BME280;41468;48.838;9.330;2023-04-07T07:42:12;98154.38;;;9.72;79.89
55604;BME280;41468;48.838;9.330;2023-04-07T07:44:39;98156.53;;;9.59;79.55
55604;BME280;41468;48.838;9.330;2023-04-07T07:47:05;98149.59;;;9.65;79.10
55604;BME280;41468;48.838;9.330;2023-04-07T07:49:32;98161.81;;;9.48;79.11
55604;BME280;41468;48.838;9.330;2023-04-07T07:51:59;98160.56;;;9.69;78.46
55604;BME280;41468;48.838;9.330;2023-04-07T07:54:26;98157.66;;;9.58;78.70
55604;BME280;41468;48.838;9.330;2023-04-07T07:56:53;98165.09;;;9.61;76.84
55604;BME280;41468;48.838;9.330;2023-04-07T07:59:19;98163.72;;;9.71;77.06
55604;BME280;41468;48.838;9.330;2023-04-07T08:01:47;98161.94;;;10.09;75.75
55604;BME280;41468;48.838;9.330;2023-04-07T08:04:13;98156.16;;;10.37;73.74
55604;BME280;41468;48.838;9.330;2023-04-07T08:06:40;98152.38;;;10.49;73.60
55604;BME280;41468;48.838;9.330;2023-04-07T08:09:07;98156.31;;;10.85;71.08
55604;BME280;41468;48.838;9.330;2023-04-07T08:11:34;98159.84;;;11.23;70.42
55604;BME280;41468;48.838;9.330;2023-04-07T08:14:01;98151.78;;;12.41;73.97
55604;BME280;41468;48.838;9.330;2023-04-07T08:16:27;98157.66;;;11.84;68.43
55604;BME280;41468;48.838;9.330;2023-04-07T08:18:54;98156.97;;;11.90;67.84
55604;BME280;41468;48.838;9.330;2023-04-07T08:21:21;98156.94;;;12.56;65.88
55604;BME280;41468;48.838;9.330;2023-04-07T08:23:47;98158.09;;;12.52;67.13
55604;BME280;41468;48.838;9.330;2023-04-07T08:26:14;98163.91;;;12.40;66.90
55604;BME280;41468;48.838;9.330;2023-04-07T08:28:41;98167.38;;;12.29;65.81
55604;BME280;41468;48.838;9.330;2023-04-07T08:31:08;98161.16;;;12.36;64.68
55604;BME280;41468;48.838;9.330;2023-04-07T08:33:34;98162.06;;;12.65;62.24
55604;BME280;41468;48.838;9.330;2023-04-07T08:36:12;98152.28;;;12.68;61.98
55604;BME280;41468;48.838;9.330;2023-04-07T08:38:39;98162.50;;;12.74;62.39
55604;BME280;41468;48.838;9.330;2023-04-07T08:41:09;98165.25;;;12.74;61.83
55604;BME280;41468;48.838;9.330;2023-04-07T08:43:38;98169.22;;;12.88;63.42
55604;BME280;41468;48.838;9.330;2023-04-07T08:46:05;98164.56;;;13.10;61.95
55604;BME280;41468;48.838;9.330;2023-04-07T08:48:49;98173.19;;;13.04;61.77
55604;BME280;41468;48.838;9.330;2023-04-07T08:51:23;98172.53;;;13.43;62.70
55604;BME280;41468;48.838;9.330;2023-04-07T08:53:53;98170.03;;;12.95;63.23
55604;BME280;41468;48.838;9.330;2023-04-07T08:56:24;98171.59;;;13.00;63.13
55604;BME280;41468;48.838;9.330;2023-04-07T08:58:52;98179.06;;;13.10;62.64
55604;BME280;41468;48.838;9.330;2023-04-07T09:01:20;98176.28;;;12.96;63.63
55604;BME280;41468;48.838;9.330;2023-04-07T09:03:47;98180.19;;;12.88;61.87
55604;BME280;41468;48.838;9.330;2023-04-07T09:06:14;98182.00;;;12.62;62.27
55604;BME280;41468;48.838;9.330;2023-04-07T09:08:41;98184.16;;;12.24;63.68
55604;BME280;41468;48.838;9.330;2023-04-07T09:11:08;98182.16;;;12.18;65.66
55604;BME280;41468;48.838;9.330;2023-04-07T09:13:35;98183.63;;;12.04;67.55
55604;BME280;41468;48.838;9.330;2023-04-07T09:16:06;98186.78;;;12.06;66.06
55604;BME280;41468;48.838;9.330;2023-04-07T09:18:33;98178.31;;;12.29;64.75
55604;BME280;41468;48.838;9.330;2023-04-07T09:21:02;98178.25;;;12.22;64.33
55604;BME280;41468;48.838;9.330;2023-04-07T09:23:41;98183.38;;;12.27;66.72
55604;BME280;41468;48.838;9.330;2023-04-07T09:26:19;98182.25;;;12.35;65.74
55604;BME280;41468;48.838;9.330;2023-04-07T09:28:56;98186.19;;;12.34;66.81
55604;BME280;41468;48.838;9.330;2023-04-07T09:31:49;98185.06;;;12.46;64.96
55604;BME280;41468;48.838;9.330;2023-04-07T09:36:49;98188.19;;;12.45;65.50
55604;BME280;41468;48.838;9.330;2023-04-07T09:39:16;98183.97;;;12.62;63.56
55604;BME280;41468;48.838;9.330;2023-04-07T09:41:43;98191.81;;;12.63;63.55
55604;BME280;41468;48.838;9.330;2023-04-07T09:44:10;98194.16;;;12.61;63.85
55604;BME280;41468;48.838;9.330;2023-04-07T09:46:47;98190.16;;;12.44;65.06
55604;BME280;41468;48.838;9.330;2023-04-07T09:49:14;98201.03;;;12.33;66.52
55604;BME280;41468;48.838;9.330;2023-04-07T09:52:03;98191.59;;;12.27;66.39
55604;BME280;41468;48.838;9.330;2023-04-07T09:54:38;98196.69;;;12.29;66.71
55604;BME280;41468;48.838;9.330;2023-04-07T09:57:06;98189.63;;;12.21;67.22
55604;BME280;41468;48.838;9.330;2023-04-07T09:59:35;98188.47;;;12.25;66.46
55604;BME280;41468;48.838;9.330;2023-04-07T10:02:02;98193.91;;;12.18;67.95
55604;BME280;41468;48.838;9.330;2023-04-07T10:04:29;98198.59;;;12.21;67.08
55604;BME280;41468;48.838;9.330;2023-04-07T10:06:57;98199.00;;;12.23;67.47
55604;BME280;41468;48.838;9.330;2023-04-07T10:09:30;98193.53;;;12.23;66.59
55604;BME280;41468;48.838;9.330;2023-04-07T10:11:58;98194.03;;;12.40;66.48
55604;BME280;41468;48.838;9.330;2023-04-07T10:14:27;98199.09;;;12.41;66.83
55604;BME280;41468;48.838;9.330;2023-04-07T10:16:59;98197.41;;;12.15;65.36
55604;BME280;41468;48.838;9.330;2023-04-07T10:19:31;98194.88;;;12.51;66.09
55604;BME280;41468;48.838;9.330;2023-04-07T10:22:09;98187.06;;;12.49;65.82
55604;BME280;41468;48.838;9.330;2023-04-07T10:24:58;98191.81;;;12.63;64.71
55604;BME280;41468;48.838;9.330;2023-04-07T10:27:32;98190.59;;;12.57;65.24
55604;BME280;41468;48.838;9.330;2023-04-07T10:30:00;98180.88;;;12.67;66.08
55604;BME280;41468;48.838;9.330;2023-04-07T10:32:27;98186.03;;;12.82;64.99
55604;BME280;41468;48.838;9.330;2023-04-07T10:34:55;98186.88;;;13.01;63.87
55604;BME280;41468;48.838;9.330;2023-04-07T10:37:24;98190.78;;;12.93;65.25
55604;BME280;41468;48.838;9.330;2023-04-07T10:42:45;98181.72;;;12.81;62.39
55604;BME280;41468;48.838;9.330;2023-04-07T10:45:15;98182.50;;;12.89;62.15
55604;BME280;41468;48.838;9.330;2023-04-07T10:50:24;98185.66;;;12.88;61.25
55604;BME280;41468;48.838;9.330;2023-04-07T10:53:07;98185.72;;;13.16;60.46
55604;BME280;41468;48.838;9.330;2023-04-07T10:58:23;98181.91;;;13.53;58.52
55604;BME280;41468;48.838;9.330;2023-04-07T11:03:31;98185.06;;;13.69;59.09
55604;BME280;41468;48.838;9.330;2023-04-07T11:06:07;98180.78;;;13.65;58.48
55604;BME280;41468;48.838;9.330;2023-04-07T11:11:03;98178.03;;;13.68;59.91
55604;BME280;41468;48.838;9.330;2023-04-07T11:16:08;98175.63;;;13.45;59.15
55604;BME280;41468;48.838;9.330;2023-04-07T11:18:36;98190.53;;;13.41;59.52
55604;BME280;41468;48.838;9.330;2023-04-07T11:21:04;98179.19;;;13.60;58.23
55604;BME280;41468;48.838;9.330;2023-04-07T11:26:07;98174.75;;;13.16;58.93
55604;BME280;41468;48.838;9.330;2023-04-07T11:28:44;98172.44;;;13.25;58.71
55604;BME280;41468;48.838;9.330;2023-04-07T11:31:14;98169.38;;;13.48;57.24
55604;BME280;41468;48.838;9.330;2023-04-07T11:33:51;98178.00;;;13.61;59.44
55604;BME280;41468;48.838;9.330;2023-04-07T11:36:28;98169.78;;;14.08;59.15
55604;BME280;41468;48.838;9.330;2023-04-07T11:38:56;98182.69;;;14.07;58.75
55604;BME280;41468;48.838;9.330;2023-04-07T11:41:28;98182.34;;;13.95;58.54
55604;BME280;41468;48.838;9.330;2023-04-07T11:44:10;98175.25;;;14.29;59.96
55604;BME280;41468;48.838;9.330;2023-04-07T11:46:54;98171.13;;;14.95;56.27
55604;BME280;41468;48.838;9.330;2023-04-07T11:49:22;98172.28;;;15.64;54.14
55604;BME280;41468;48.838;9.330;2023-04-07T11:52:01;98172.72;;;15.59;51.48
55604;BME280;41468;48.838;9.330;2023-04-07T11:54:41;98175.81;;;15.64;51.46
55604;BME280;41468;48.838;9.330;2023-04-07T11:57:09;98175.03;;;15.60;51.78
55604;BME280;41468;48.838;9.330;2023-04-07T11:59:39;98177.13;;;15.42;53.28
55604;BME280;41468;48.838;9.330;2023-04-07T12:02:06;98177.50;;;15.44;53.55
55604;BME280;41468;48.838;9.330;2023-04-07T12:04:34;98181.31;;;14.98;53.96
55604;BME280;41468;48.838;9.330;2023-04-07T12:07:10;98183.34;;;14.79;53.99
55604;BME280;41468;48.838;9.330;2023-04-07T12:09:37;98186.56;;;14.60;54.49
55604;BME280;41468;48.838;9.330;2023-04-07T12:12:05;98184.22;;;14.37;53.20
55604;BME280;41468;48.838;9.330;2023-04-07T12:14:34;98182.69;;;14.22;55.14
55604;BME280;41468;48.838;9.330;2023-04-07T12:17:01;98187.81;;;14.20;53.19
55604;BME280;41468;48.838;9.330;2023-04-07T12:19:30;98180.75;;;14.11;54.26
55604;BME280;41468;48.838;9.330;2023-04-07T12:22:02;98194.47;;;14.04;54.00
55604;BME280;41468;48.838;9.330;2023-04-07T12:24:29;98188.22;;;13.89;55.81
55604;BME280;41468;48.838;9.330;2023-04-07T12:26:57;98198.81;;;13.84;56.55
55604;BME280;41468;48.838;9.330;2023-04-07T12:29:25;98202.72;;;13.65;57.73
55604;BME280;41468;48.838;9.330;2023-04-07T12:31:51;98200.72;;;13.47;58.39
55604;BME280;41468;48.838;9.330;2023-04-07T12:34:18;98198.75;;;13.48;58.60
55604;BME280;41468;48.838;9.330;2023-04-07T12:36:52;98204.63;;;13.43;59.89
55604;BME280;41468;48.838;9.330;2023-04-07T12:39:18;98192.06;;;13.35;60.02
55604;BME280;41468;48.838;9.330;2023-04-07T12:41:45;98199.88;;;13.25;60.18
55604;BME280;41468;48.838;9.330;2023-04-07T12:44:14;98201.09;;;13.32;60.26
55604;BME280;41468;48.838;9.330;2023-04-07T12:46:41;98198.66;;;13.12;61.11
55604;BME280;41468;48.838;9.330;2023-04-07T12:49:08;98204.53;;;13.14;60.72
55604;BME280;41468;48.838;9.330;2023-04-07T12:51:35;98203.13;;;13.81;65.23
55604;BME280;41468;48.838;9.330;2023-04-07T12:54:03;98207.44;;;14.04;59.73
55604;BME280;41468;48.838;9.330;2023-04-07T12:56:29;98203.88;;;13.57;59.67
55604;BME280;41468;48.838;9.330;2023-04-07T12:58:57;98203.03;;;13.35;59.40
55604;BME280;41468;48.838;9.330;2023-04-07T13:01:23;98203.00;;;13.17;60.54
55604;BME280;41468;48.838;9.330;2023-04-07T13:03:50;98206.06;;;13.04;60.80
55604;BME280;41468;48.838;9.330;2023-04-07T13:06:18;98199.81;;;13.08;60.92
55604;BME280;41468;48.838;9.330;2023-04-07T13:08:44;98206.03;;;12.94;61.54
55604;BME280;41468;48.838;9.330;2023-04-07T13:11:11;98200.53;;;12.94;61.84
55604;BME280;41468;48.838;9.330;2023-04-07T13:13:38;98200.56;;;12.97;62.44
55604;BME280;41468;48.838;9.330;2023-04-07T13:16:04;98204.50;;;13.11;62.41
55604;BME280;41468;48.838;9.330;2023-04-07T13:18:31;98201.75;;;13.00;64.31
55604;BME280;41468;48.838;9.330;2023-04-07T13:20:58;98202.09;;;12.95;65.89
55604;BME280;41468;48.838;9.330;2023-04-07T13:23:45;98199.00;;;12.93;65.19
55604;BME280;41468;48.838;9.330;2023-04-07T13:26:12;98197.31;;;12.70;65.40
55604;BME280;41468;48.838;9.330;2023-04-07T13:28:38;98194.16;;;12.61;65.49
55604;BME280;41468;48.838;9.330;2023-04-07T13:31:05;98197.66;;;12.58;68.79
55604;BME280;41468;48.838;9.330;2023-04-07T13:33:33;98202.72;;;12.56;67.63
55604;BME280;41468;48.838;9.330;2023-04-07T13:36:00;98197.25;;;12.56;67.87
55604;BME280;41468;48.838;9.330;2023-04-07T13:38:27;98189.47;;;12.65;68.26
55604;BME280;41468;48.838;9.330;2023-04-07T13:40:53;98190.28;;;12.69;67.84